Time;durP1;ratioP1;P1;durP2;ratioP2;P2;SDS_P1;SDS_P2;PMS_P1;PMS_P2;Temp;Humidity;BMP_temperature;BMP_pressure;BME280_temperature;BME280_humidity;BME280_pressure;Samples;Min_cycle;Max_cycle;Signal;HPM_P1;HPM_P2
2022/05/11 00:02:40;;;;;;;14.87;5.63;;;;;;;18.20;77.35;100396.66;8300473;28;20053;-62
2022/05/11 00:06:40;;;;;;;15.32;6.30;;;;;;;17.92;78.72;100393.75;8302296;28;20281;-62
2022/05/11 00:10:41;;;;;;;8.48;5.03;;;;;;;18.10;78.43;100401.56;8306851;28;20553;-62
2022/05/11 00:14:41;;;;;;;11.13;6.18;;;;;;;17.79;80.26;100396.34;8295921;28;20037;-61
2022/05/11 00:18:42;;;;;;;13.30;6.00;;;;;;;17.77;80.27;100384.72;8291496;28;20493;-61
2022/05/11 00:22:43;;;;;;;11.38;6.22;;;;;;;17.43;82.89;100387.19;8302953;28;20038;-61
2022/05/11 00:26:44;;;;;;;11.82;6.38;;;;;;;17.32;84.70;100383.00;8302413;28;20479;-61
2022/05/11 00:30:45;;;;;;;15.02;5.70;;;;;;;17.02;86.43;100374.94;8289793;28;20035;-61
2022/05/11 00:34:45;;;;;;;12.70;6.60;;;;;;;17.27;83.61;100368.19;8311240;28;20048;-61
2022/05/11 00:38:47;;;;;;;10.23;5.50;;;;;;;17.39;82.87;100353.88;8314709;28;20050;-62
2022/05/11 00:42:47;;;;;;;14.90;6.57;;;;;;;16.82;87.52;100360.09;8300315;28;20280;-62
2022/05/11 00:46:59;;;;;;;10.15;5.22;;;;;;;16.90;87.34;100357.31;8295478;28;20375;-61
2022/05/11 00:51:00;;;;;;;11.13;5.15;;;;;;;17.26;85.80;100358.31;8307983;28;20041;-61
2022/05/11 00:55:05;;;;;;;12.68;4.70;;;;;;;16.78;88.47;100361.50;8288140;28;20030;-62
2022/05/11 00:59:15;;;;;;;14.15;5.47;;;;;;;16.98;88.11;100343.56;8300243;28;20049;-61
2022/05/11 01:03:19;;;;;;;10.90;4.82;;;;;;;17.11;86.41;100349.25;8289883;28;20060;-61
2022/05/11 01:07:19;;;;;;;9.40;5.70;;;;;;;16.82;87.92;100343.72;8306417;28;20494;-61
2022/05/11 01:11:20;;;;;;;11.45;5.70;;;;;;;16.98;86.70;100344.41;8286481;28;20034;-61
2022/05/11 01:15:21;;;;;;;12.63;7.03;;;;;;;16.93;87.72;100340.56;8293093;28;20235;-61
2022/05/11 01:19:26;;;;;;;17.55;6.53;;;;;;;17.22;85.17;100330.50;8296492;28;20046;-61
2022/05/11 01:23:52;;;;;;;13.27;6.05;;;;;;;16.94;86.97;100325.84;8296864;28;20034;-61
2022/05/11 01:28:01;;;;;;;10.30;6.47;;;;;;;16.96;86.66;100324.63;8282864;28;20359;-61
2022/05/11 01:32:02;;;;;;;15.20;5.93;;;;;;;17.05;86.37;100328.16;8305075;28;20090;-61
2022/05/11 01:40:37;;;;;;;9.95;6.70;;;;;;;16.74;88.74;100308.31;8437244;27;20936;-61
2022/05/11 01:44:37;;;;;;;9.88;6.50;;;;;;;16.49;90.40;100309.53;8403932;28;20037;-61
2022/05/11 01:48:38;;;;;;;12.73;7.38;;;;;;;16.40;89.54;100292.38;8391029;28;20063;-61
2022/05/11 01:52:38;;;;;;;12.38;7.70;;;;;;;16.42;90.09;100292.19;8385559;28;20404;-61
2022/05/11 01:56:39;;;;;;;13.40;7.45;;;;;;;16.48;89.17;100296.94;8385308;28;20057;-61
2022/05/11 02:00:42;;;;;;;13.27;8.23;;;;;;;16.49;90.10;100291.31;8390903;28;20391;-61
2022/05/11 02:09:04;;;;;;;13.90;7.97;;;;;;;16.18;92.72;100289.66;8391352;28;20067;-61
2022/05/11 02:13:05;;;;;;;12.85;7.38;;;;;;;15.77;95.44;100287.19;8401625;28;20039;-61
2022/05/11 02:17:06;;;;;;;15.30;7.57;;;;;;;15.88;94.92;100280.47;8380863;28;20032;-61
2022/05/11 02:21:07;;;;;;;12.80;7.60;;;;;;;15.87;94.66;100275.22;8376124;28;20541;-61
2022/05/11 02:25:09;;;;;;;13.52;8.02;;;;;;;15.99;93.07;100262.88;8407410;28;20048;-61
2022/05/11 02:29:10;;;;;;;10.15;7.03;;;;;;;15.83;94.26;100263.84;8400974;28;20029;-61
2022/05/11 02:33:11;;;;;;;10.52;6.75;;;;;;;15.79;93.56;100251.56;8386592;28;20413;-61
2022/05/11 02:37:11;;;;;;;10.48;7.28;;;;;;;15.88;93.14;100260.53;8372875;28;20512;-61
2022/05/11 02:41:13;;;;;;;12.48;7.22;;;;;;;15.77;93.47;100254.47;8377430;28;20049;-65
2022/05/11 02:45:14;;;;;;;10.02;6.90;;;;;;;15.71;94.15;100249.75;8389059;28;20087;-61
2022/05/11 02:49:15;;;;;;;9.77;6.97;;;;;;;15.66;94.40;100249.47;8380712;28;20036;-61
2022/05/11 02:53:16;;;;;;;12.98;7.35;;;;;;;15.56;94.77;100240.63;8360371;28;20044;-61
2022/05/11 02:57:17;;;;;;;11.75;6.95;;;;;;;15.61;93.83;100242.81;8376606;28;20034;-61
2022/05/11 03:01:18;;;;;;;16.83;7.38;;;;;;;15.88;90.95;100231.41;8375153;28;20056;-61
2022/05/11 03:05:19;;;;;;;11.10;7.38;;;;;;;15.74;90.96;100222.13;8352531;28;20033;-61
2022/05/11 03:09:19;;;;;;;14.77;7.73;;;;;;;15.79;91.04;100223.50;8360542;28;20096;-61
2022/05/11 03:13:20;;;;;;;13.52;7.63;;;;;;;15.73;91.21;100220.44;8372556;28;20335;-61
2022/05/11 03:17:20;;;;;;;12.20;8.20;;;;;;;15.55;92.51;100217.16;8365140;28;20022;-61
2022/05/11 03:21:23;;;;;;;11.68;7.43;;;;;;;15.50;93.93;100208.66;8377287;28;20036;-61
2022/05/11 03:25:25;;;;;;;14.35;7.85;;;;;;;15.25;94.08;100206.25;8377524;28;20029;-61
2022/05/11 03:29:26;;;;;;;18.83;7.78;;;;;;;15.01;96.02;100201.72;8369719;28;20021;-61
2022/05/11 03:34:42;;;;;;;12.50;7.80;;;;;;;15.01;95.77;100196.28;8375527;28;20037;-61
2022/05/11 03:37:47;;;;;;;21.85;8.75;;;;;;;15.01;95.75;100199.00;8358087;28;20279;-61
2022/05/11 03:41:47;;;;;;;17.02;9.27;;;;;;;15.22;94.95;100193.81;8364885;28;20541;-61
2022/05/11 03:45:47;;;;;;;17.17;9.50;;;;;;;15.23;94.64;100200.97;8364962;28;20037;-61
2022/05/11 03:49:48;;;;;;;17.90;9.82;;;;;;;15.14;95.42;100196.59;8346904;28;20095;-61
2022/05/11 03:53:48;;;;;;;20.90;10.10;;;;;;;14.70;97.37;100186.41;8370070;28;20029;-61
2022/05/11 03:57:49;;;;;;;15.25;9.10;;;;;;;14.65;97.64;100184.19;8371309;28;20272;-61
2022/05/11 04:01:49;;;;;;;21.02;9.50;;;;;;;14.47;100.00;100186.28;8352289;28;20100;-61
2022/05/11 04:05:50;;;;;;;19.27;10.43;;;;;;;14.57;98.96;100176.03;8350716;28;20505;-61
2022/05/11 04:09:50;;;;;;;16.30;10.55;;;;;;;14.63;100.00;100180.78;8355278;28;20101;-61
2022/05/11 04:13:52;;;;;;;14.07;9.80;;;;;;;14.69;98.17;100181.94;8367424;28;20036;-61
2022/05/11 04:17:52;;;;;;;18.52;9.18;;;;;;;14.73;98.86;100181.44;8348718;28;20050;-61
2022/05/11 04:21:52;;;;;;;13.85;8.98;;;;;;;14.76;98.23;100183.81;8353280;28;20067;-61
2022/05/11 04:25:55;;;;;;;14.30;9.23;;;;;;;14.41;100.00;100178.81;8363565;28;20459;-61
2022/05/11 04:29:55;;;;;;;12.57;8.63;;;;;;;14.34;100.00;100185.97;8346441;28;20037;-61
2022/05/11 04:33:56;;;;;;;18.95;9.57;;;;;;;14.50;100.00;100185.94;8354961;28;20098;-61
2022/05/11 04:37:57;;;;;;;12.85;8.15;;;;;;;14.35;100.00;100192.25;8360087;28;20494;-61
2022/05/11 04:41:57;;;;;;;16.27;9.27;;;;;;;14.24;100.00;100190.72;8339534;28;20064;-61
2022/05/11 04:45:58;;;;;;;11.93;8.80;;;;;;;14.34;100.00;100188.69;8351008;28;20045;-61
2022/05/11 04:49:59;;;;;;;13.82;9.25;;;;;;;14.38;100.00;100187.31;8331995;28;20277;-61
2022/05/11 04:53:59;;;;;;;15.18;10.18;;;;;;;14.39;100.00;100183.56;8353814;28;20033;-61
2022/05/11 04:57:59;;;;;;;15.17;9.37;;;;;;;14.52;100.00;100183.88;8362007;28;20413;-61
2022/05/11 05:02:03;;;;;;;16.20;9.68;;;;;;;14.56;100.00;100174.38;8361822;28;20280;-61
2022/05/11 05:06:03;;;;;;;11.38;8.18;;;;;;;14.96;100.00;100187.81;8358047;28;20036;-61
2022/05/11 05:10:06;;;;;;;20.45;10.32;;;;;;;15.20;100.00;100182.25;8364478;28;20392;-61
2022/05/11 05:14:06;;;;;;;17.17;10.10;;;;;;;15.60;100.00;100182.06;8377781;28;20033;-61
2022/05/11 05:18:07;;;;;;;18.05;10.45;;;;;;;15.97;97.67;100177.66;8362243;28;20033;-61
2022/05/11 05:22:08;;;;;;;17.45;10.85;;;;;;;16.59;92.83;100184.59;8351306;28;20402;-61
2022/05/11 05:26:08;;;;;;;27.55;12.93;;;;;;;16.84;88.48;100195.03;8371347;28;20493;-61
2022/05/11 05:31:11;;;;;;;23.42;11.63;;;;;;;17.11;88.15;100190.81;8382755;28;20032;-61
2022/05/11 05:34:30;;;;;;;23.55;11.88;;;;;;;17.36;88.01;100192.16;8347015;28;20465;-61
2022/05/11 05:38:30;;;;;;;25.35;11.02;;;;;;;17.86;85.52;100197.59;8354127;28;20052;-61
2022/05/11 05:42:32;;;;;;;19.75;10.30;;;;;;;18.20;83.87;100191.41;8357184;28;20190;-61
2022/05/11 05:46:35;;;;;;;21.35;11.48;;;;;;;18.33;83.48;100184.13;8352504;28;20116;-61
2022/05/11 05:50:35;;;;;;;23.15;11.68;;;;;;;18.72;82.11;100192.66;8359755;28;20121;-61
2022/05/11 05:54:36;;;;;;;18.42;9.32;;;;;;;19.26;79.37;100182.69;8358378;28;20033;-61
2022/05/11 05:58:37;;;;;;;16.95;8.35;;;;;;;19.67;75.18;100190.00;8371431;28;20041;-61
2022/05/11 06:02:37;;;;;;;25.30;8.48;;;;;;;20.02;73.10;100197.00;8381533;28;20044;-61
2022/05/11 06:06:37;;;;;;;14.73;7.53;;;;;;;20.33;72.50;100192.63;8361069;28;20478;-62
2022/05/11 06:10:39;;;;;;;14.43;6.35;;;;;;;20.60;70.82;100188.81;8368054;28;20396;-62
2022/05/11 06:14:41;;;;;;;13.75;6.05;;;;;;;20.88;69.97;100185.81;8357136;28;20037;-62
2022/05/11 06:18:44;;;;;;;6.97;4.82;;;;;;;21.18;67.45;100184.28;8354946;28;20049;-61
2022/05/11 06:22:45;;;;;;;8.57;4.70;;;;;;;21.20;67.46;100184.91;8362035;28;20042;-62
2022/05/11 06:26:46;;;;;;;10.75;4.57;;;;;;;21.47;65.96;100180.97;8372347;28;20044;-62
2022/05/11 06:30:47;;;;;;;8.80;4.05;;;;;;;21.56;63.87;100179.66;8366118;28;20477;-62
2022/05/11 06:34:48;;;;;;;8.95;3.50;;;;;;;21.87;62.34;100170.63;8383003;28;20025;-62
2022/05/11 06:38:48;;;;;;;5.28;3.22;;;;;;;21.88;62.39;100178.66;8376863;28;20041;-62
2022/05/11 06:42:49;;;;;;;4.73;3.27;;;;;;;22.18;60.45;100174.22;8366752;28;20040;-62
2022/05/11 06:46:50;;;;;;;8.07;3.53;;;;;;;22.29;61.71;100176.22;8376336;28;20275;-62
2022/05/11 06:50:51;;;;;;;10.98;3.80;;;;;;;22.43;62.80;100177.81;8358627;28;20038;-62
2022/05/11 06:59:27;;;;;;;4.45;3.70;;;;;;;22.67;63.15;100182.50;8361421;28;20037;-62
2022/05/11 07:03:27;;;;;;;9.07;3.70;;;;;;;22.62;61.64;100185.09;8353611;28;20100;-62
2022/05/11 07:07:28;;;;;;;6.70;3.60;;;;;;;22.96;61.29;100176.25;8358495;28;20041;-62
2022/05/11 07:12:38;;;;;;;5.25;3.58;;;;;;;23.04;61.92;100181.47;8372576;28;20760;-62
2022/05/11 07:15:49;;;;;;;5.95;3.40;;;;;;;23.16;62.87;100179.63;8366861;28;20405;-62
2022/05/11 07:19:49;;;;;;;7.43;3.57;;;;;;;23.40;60.66;100188.06;8370121;28;20084;-62
2022/05/11 07:23:50;;;;;;;8.03;2.97;;;;;;;23.32;60.57;100177.38;8376090;28;20343;-62
2022/05/11 07:27:52;;;;;;;14.27;3.40;;;;;;;23.40;60.36;100174.28;8357239;28;20279;-62
2022/05/11 07:31:53;;;;;;;10.40;3.30;;;;;;;23.21;59.34;100168.72;8383784;28;20482;-62
2022/05/11 07:35:53;;;;;;;8.13;3.20;;;;;;;23.61;60.14;100171.88;8372769;28;20416;-62
2022/05/11 07:39:55;;;;;;;12.25;3.50;;;;;;;23.70;61.72;100175.16;8367728;28;20048;-62
2022/05/11 07:43:55;;;;;;;8.65;3.80;;;;;;;23.52;59.33;100164.13;8358685;28;20409;-62
2022/05/11 07:47:56;;;;;;;11.98;4.07;;;;;;;23.83;59.87;100164.75;8358209;28;20040;-62
2022/05/11 07:51:56;;;;;;;23.43;3.80;;;;;;;23.75;59.41;100167.84;8365911;28;20036;-62
2022/05/11 08:00:18;;;;;;;7.32;4.03;;;;;;;24.43;58.01;100163.59;8373420;28;20578;-62
2022/05/11 08:04:19;;;;;;;17.27;4.38;;;;;;;24.52;57.63;100175.16;8369907;28;20051;-62
2022/05/11 08:08:19;;;;;;;10.55;5.30;;;;;;;24.57;59.66;100166.97;8372165;28;20029;-62
2022/05/11 08:12:19;;;;;;;14.37;4.23;;;;;;;24.48;60.77;100168.41;8380837;28;20088;-62
2022/05/11 08:16:20;;;;;;;8.70;3.93;;;;;;;24.46;61.41;100163.09;8378967;28;20284;-62
2022/05/11 08:20:24;;;;;;;12.63;3.95;;;;;;;24.78;59.81;100158.09;8373371;28;20093;-62
2022/05/11 08:24:26;;;;;;;10.15;4.43;;;;;;;25.22;59.09;100160.19;8369629;28;20034;-62
2022/05/11 08:28:27;;;;;;;12.00;4.65;;;;;;;25.09;58.70;100154.94;8362511;28;20255;-62
2022/05/11 08:33:27;;;;;;;17.77;5.10;;;;;;;25.20;57.94;100153.22;8359554;28;20034;-62
2022/05/11 08:36:47;;;;;;;10.85;3.88;;;;;;;25.18;59.09;100158.19;8368338;28;20029;-62
2022/05/11 08:40:55;;;;;;;11.43;4.10;;;;;;;25.23;57.81;100145.28;8363035;28;20040;-62
2022/05/11 08:44:56;;;;;;;8.82;4.47;;;;;;;25.27;58.82;100152.00;8367469;28;20041;-62
2022/05/11 08:49:08;;;;;;;6.05;3.83;;;;;;;25.57;57.48;100152.69;8367797;28;20041;-62
2022/05/11 08:53:33;;;;;;;8.50;3.95;;;;;;;25.45;59.94;100154.66;8373641;28;20036;-62
2022/05/11 08:57:36;;;;;;;9.15;4.00;;;;;;;25.97;57.23;100147.06;8346576;28;20472;-62
2022/05/11 09:01:45;;;;;;;10.07;3.50;;;;;;;26.12;56.14;100137.13;8356262;28;20489;-62
2022/05/11 09:05:45;;;;;;;9.50;3.67;;;;;;;26.12;57.89;100139.91;8370302;28;20043;-62
2022/05/11 09:09:46;;;;;;;7.10;4.03;;;;;;;26.35;56.93;100133.38;8378273;28;20034;-62
2022/05/11 09:13:46;;;;;;;13.00;4.00;;;;;;;25.67;55.58;100136.25;8377120;28;20632;-62
2022/05/11 09:17:46;;;;;;;7.40;4.27;;;;;;;25.08;56.36;100124.75;8359801;28;20034;-62
2022/05/11 09:21:54;;;;;;;9.77;3.63;;;;;;;25.62;57.92;100144.47;8349317;28;20823;-62
2022/05/11 09:26:02;;;;;;;6.20;4.20;;;;;;;25.82;55.16;100122.69;8360294;28;20402;-62
2022/05/11 09:30:22;;;;;;;10.85;3.95;;;;;;;25.49;55.25;100117.06;8350629;28;20422;-62
2022/05/11 09:34:26;;;;;;;11.93;4.95;;;;;;;25.21;55.85;100119.78;8365057;28;20067;-62
2022/05/11 09:38:40;;;;;;;10.93;4.03;;;;;;;25.41;56.11;100128.53;8349337;28;20041;-62
2022/05/11 09:43:00;;;;;;;;;;;;;;;26.17;57.50;100130.84;8351026;28;20574;-62
2022/05/11 09:47:02;;;;;;;9.68;4.40;;;;;;;27.06;55.72;100118.63;8350735;28;19920;-62
2022/05/11 09:51:24;;;;;;;9.38;3.67;;;;;;;29.00;52.16;100116.09;8364792;28;20056;-62
2022/05/11 09:55:28;;;;;;;9.70;3.85;;;;;;;29.81;47.46;100112.59;8342515;28;20033;-62
2022/05/11 09:59:38;;;;;;;11.82;3.72;;;;;;;31.51;46.72;100116.31;8364495;28;20068;-62
2022/05/11 10:03:46;;;;;;;17.13;4.10;;;;;;;31.64;47.97;100116.53;8394093;28;20033;-62
2022/05/11 10:08:18;;;;;;;12.10;3.70;;;;;;;33.02;44.62;100110.41;8364451;28;20052;-62
2022/05/11 10:12:24;;;;;;;14.07;3.73;;;;;;;32.98;44.37;100098.97;8381615;28;20041;-62
2022/05/11 10:25:53;;;;;;;7.15;3.30;;;;;;;33.88;41.43;100086.56;8425603;27;20117;-61
2022/05/11 10:30:23;;;;;;;6.90;3.05;;;;;;;34.79;41.67;100087.84;8383654;28;20049;-63
2022/05/11 10:39:05;;;;;;;11.25;3.20;;;;;;;33.90;42.12;100073.09;8332162;28;20427;-61
2022/05/11 10:43:22;;;;;;;7.03;3.47;;;;;;;34.62;41.10;100073.56;8309957;28;20065;-61
2022/05/11 10:48:03;;;;;;;5.93;2.83;;;;;;;35.13;40.38;100051.78;8324583;28;20101;-61
2022/05/11 10:52:30;;;;;;;6.53;3.30;;;;;;;35.35;40.17;100061.16;8323589;28;20509;-61
2022/05/11 10:56:59;;;;;;;6.15;3.10;;;;;;;35.13;40.83;100040.53;8306401;28;20104;-61
2022/05/11 11:01:09;;;;;;;8.63;3.05;;;;;;;35.48;40.29;100051.03;8336623;28;20111;-62
2022/05/11 11:07:11;;;;;;;9.93;3.28;;;;;;;34.97;40.13;100042.81;8329260;28;20030;-62
2022/05/11 11:10:36;;;;;;;9.30;2.92;;;;;;;35.06;41.40;100038.13;8338576;28;20038;-62
2022/05/11 11:14:41;;;;;;;7.90;2.70;;;;;;;34.99;40.79;100031.25;8328695;28;20034;-62
2022/05/11 11:18:49;;;;;;;9.20;3.42;;;;;;;34.92;40.61;100028.03;8319912;28;20041;-62
2022/05/11 11:28:09;;;;;;;7.68;3.30;;;;;;;33.62;42.40;100017.94;8439365;27;20340;-62
2022/05/11 11:32:13;;;;;;;5.90;3.05;;;;;;;34.64;41.00;100013.09;8407405;27;20041;-61
2022/05/11 11:36:33;;;;;;;6.70;2.75;;;;;;;35.21;40.76;100003.22;8402518;28;20033;-62
2022/05/11 11:40:35;;;;;;;5.78;2.95;;;;;;;35.62;38.94;100002.00;8397323;28;20486;-62
2022/05/11 11:44:41;;;;;;;9.15;2.58;;;;;;;35.94;39.28;100000.16;8402261;28;20040;-62
2022/05/11 11:48:43;;;;;;;5.25;2.60;;;;;;;35.73;39.21;99991.34;8394733;28;20505;-62
2022/05/11 11:52:46;;;;;;;4.07;2.63;;;;;;;34.70;40.35;99980.97;8396299;28;20024;-62
2022/05/11 11:56:47;;;;;;;6.32;2.80;;;;;;;35.02;41.00;99982.84;8399415;28;20049;-62
2022/05/11 12:18:24;;;;;;;3.33;2.25;;;;;;;30.32;47.14;99960.91;8408753;27;20061;-61
2022/05/11 12:22:25;;;;;;;3.78;2.60;;;;;;;30.25;46.74;99951.97;8418068;27;20036;-61
2022/05/11 12:26:40;;;;;;;7.88;2.85;;;;;;;30.49;46.53;99956.94;8422077;27;20050;-61
2022/05/11 12:30:43;;;;;;;5.78;2.33;;;;;;;29.85;45.44;99943.63;8415457;27;20123;-61
2022/05/11 12:34:46;;;;;;;4.47;2.30;;;;;;;30.21;44.37;99950.88;8410223;27;20029;-62
2022/05/11 12:38:51;;;;;;;7.20;2.20;;;;;;;30.22;44.31;99935.78;8400944;27;20049;-62
2022/05/11 12:42:55;;;;;;;8.25;2.40;;;;;;;30.22;44.75;99929.41;8421102;27;20043;-62
2022/05/11 12:46:59;;;;;;;3.20;1.63;;;;;;;30.26;42.95;99931.34;8407435;27;20040;-62
2022/05/11 12:51:11;;;;;;;7.45;1.58;;;;;;;30.23;42.63;99917.94;8415779;27;20106;-62
2022/05/11 12:55:12;;;;;;;3.58;1.85;;;;;;;30.42;43.60;99919.00;8408525;27;20316;-62
2022/05/11 12:59:19;;;;;;;6.32;1.70;;;;;;;30.22;42.20;99907.91;8414372;27;20044;-62
2022/05/11 13:03:31;;;;;;;3.30;1.75;;;;;;;30.39;42.30;99900.03;8415162;27;20029;-62
2022/05/11 13:11:50;;;;;;;3.05;1.20;;;;;;;30.17;42.65;99896.75;8407856;27;20422;-61
2022/05/11 13:15:52;;;;;;;4.22;1.92;;;;;;;30.30;41.62;99882.22;8381205;28;20036;-61
2022/05/11 13:19:57;;;;;;;3.38;1.42;;;;;;;30.01;42.84;99883.94;8384964;28;20037;-61
2022/05/11 13:23:58;;;;;;;10.00;1.73;;;;;;;30.13;42.68;99878.88;8383337;28;20052;-61
2022/05/11 13:28:09;;;;;;;17.38;1.60;;;;;;;30.36;42.39;99875.50;8385150;28;20033;-62
2022/05/11 13:32:24;;;;;;;4.53;1.10;;;;;;;30.05;42.24;99885.06;8381428;28;20044;-62
2022/05/11 13:36:45;;;;;;;5.22;1.48;;;;;;;29.78;42.30;99876.19;8390096;28;20068;-62
2022/05/11 13:40:54;;;;;;;3.78;0.95;;;;;;;29.83;41.50;99881.75;8394854;28;20038;-61
2022/05/11 13:45:00;;;;;;;7.32;1.23;;;;;;;29.43;41.56;99884.53;8378474;28;20033;-62
2022/05/11 13:49:26;;;;;;;9.90;1.60;;;;;;;29.53;42.21;99881.75;8406657;28;20045;-62
2022/05/11 13:53:30;;;;;;;3.80;1.60;;;;;;;29.57;42.92;99871.72;8359669;28;20041;-62
2022/05/11 13:57:35;;;;;;;3.55;1.50;;;;;;;29.35;42.25;99873.97;8341219;28;20040;-62
2022/05/11 14:01:46;;;;;;;3.83;1.50;;;;;;;29.37;41.84;99863.38;8363417;28;20040;-62
2022/05/11 14:05:46;;;;;;;9.05;1.30;;;;;;;29.66;43.15;99864.50;8346707;28;20072;-62
2022/05/11 14:09:47;;;;;;;3.55;1.27;;;;;;;29.59;42.45;99863.09;8357206;28;20063;-62
2022/05/11 14:13:48;;;;;;;10.40;1.30;;;;;;;29.24;42.13;99860.31;8338848;28;20034;-62
2022/05/11 14:17:51;;;;;;;4.07;1.42;;;;;;;29.03;42.27;99864.97;8347629;28;20276;-61
2022/05/11 14:21:51;;;;;;;6.45;1.30;;;;;;;28.80;41.53;99848.81;8356631;28;20112;-61
2022/05/11 14:25:52;;;;;;;8.82;1.80;;;;;;;28.76;41.95;99850.50;8332369;28;20096;-62
2022/05/11 14:29:52;;;;;;;7.53;1.53;;;;;;;29.07;42.37;99854.16;8334877;28;20137;-62
2022/05/11 14:33:54;;;;;;;6.50;1.55;;;;;;;29.06;41.84;99858.06;8325897;28;20307;-62
2022/05/11 14:37:55;;;;;;;6.07;1.85;;;;;;;28.79;43.69;99841.59;8326400;28;20124;-62
2022/05/11 14:41:57;;;;;;;10.70;2.03;;;;;;;28.67;42.43;99838.22;8331606;28;20037;-62
2022/05/11 14:46:05;;;;;;;3.85;1.95;;;;;;;28.63;43.00;99835.13;8324486;28;20040;-62
2022/05/11 14:50:09;;;;;;;4.13;1.70;;;;;;;28.29;42.98;99841.38;8326802;28;20091;-62
2022/05/11 14:54:11;;;;;;;6.63;2.28;;;;;;;28.48;42.91;99840.66;8327651;28;20127;-62
2022/05/11 15:02:35;;;;;;;4.57;2.00;;;;;;;28.59;45.05;99830.41;8329599;28;20041;-62
2022/05/11 15:06:39;;;;;;;4.07;1.67;;;;;;;28.45;43.51;99851.47;8324695;28;20038;-62
2022/05/11 15:10:40;;;;;;;11.18;2.60;;;;;;;28.37;44.81;99841.72;8325648;28;20065;-62
2022/05/11 15:14:42;;;;;;;4.15;1.45;;;;;;;28.33;44.69;99839.75;8334623;28;20099;-62
2022/05/11 15:18:42;;;;;;;8.82;1.58;;;;;;;28.18;43.93;99848.84;8319303;28;20508;-62
2022/05/11 15:22:43;;;;;;;6.77;1.90;;;;;;;28.13;44.97;99842.44;8331032;28;20033;-62
2022/05/11 15:26:44;;;;;;;4.88;1.38;;;;;;;28.01;45.31;99844.59;8328019;28;20280;-62
2022/05/11 15:30:46;;;;;;;4.65;1.70;;;;;;;27.89;45.63;99835.63;8331177;28;20046;-62
2022/05/11 15:34:47;;;;;;;6.28;2.45;;;;;;;27.72;46.16;99830.22;8322065;28;20105;-62
2022/05/11 15:38:48;;;;;;;4.57;2.03;;;;;;;27.96;45.97;99830.69;8323251;28;20032;-62
2022/05/11 15:42:48;;;;;;;4.68;1.60;;;;;;;28.07;46.52;99826.84;8320077;28;20037;-62
2022/05/11 15:46:49;;;;;;;4.40;1.83;;;;;;;28.03;45.28;99834.06;8335200;28;20042;-62
2022/05/11 15:50:49;;;;;;;7.70;2.10;;;;;;;28.17;46.29;99822.16;8328616;28;20056;-62
2022/05/11 15:54:50;;;;;;;7.73;1.80;;;;;;;27.94;45.92;99827.34;8325480;28;20371;-62
2022/05/11 15:58:51;;;;;;;5.72;1.75;;;;;;;28.06;46.68;99819.63;8358627;28;20292;-62
2022/05/11 16:02:52;;;;;;;8.77;1.92;;;;;;;28.07;46.34;99833.25;8323312;28;20049;-62
2022/05/11 16:06:52;;;;;;;3.53;1.70;;;;;;;27.96;46.13;99827.91;8322476;28;20030;-62
2022/05/11 16:10:53;;;;;;;2.50;1.83;;;;;;;27.81;46.92;99839.72;8327533;28;20046;-62
2022/05/11 16:14:53;;;;;;;4.85;1.83;;;;;;;27.51;46.55;99835.94;8368700;28;20037;-62
2022/05/11 16:19:56;;;;;;;4.27;1.80;;;;;;;27.44;47.06;99827.00;8364483;28;20037;-62
2022/05/11 16:23:14;;;;;;;9.25;2.08;;;;;;;27.26;47.63;99830.19;8357432;28;20340;-62
2022/05/11 16:27:16;;;;;;;9.30;2.07;;;;;;;27.39;47.45;99840.84;8366603;28;20052;-62
2022/05/11 16:31:16;;;;;;;6.85;2.08;;;;;;;27.52;47.62;99843.16;8352202;28;20282;-62
2022/05/11 16:35:17;;;;;;;6.97;2.03;;;;;;;27.67;47.52;99848.81;8348199;28;20037;-62
2022/05/11 16:39:22;;;;;;;4.65;1.98;;;;;;;27.70;47.29;99845.50;8366444;28;20064;-62
2022/05/11 16:43:23;;;;;;;3.65;1.85;;;;;;;27.56;47.87;99841.50;8345559;28;20049;-62
2022/05/11 16:47:23;;;;;;;2.90;2.20;;;;;;;27.33;47.82;99836.34;8357872;28;20037;-62
2022/05/11 16:51:23;;;;;;;3.90;1.70;;;;;;;27.13;47.79;99836.97;8350759;28;20337;-62
2022/05/11 16:55:26;;;;;;;6.63;2.08;;;;;;;27.14;47.98;99838.66;8359973;28;20271;-62
2022/05/11 16:59:26;;;;;;;9.82;2.00;;;;;;;27.01;48.50;99843.84;8354713;28;20141;-62
2022/05/11 17:03:28;;;;;;;12.60;2.38;;;;;;;27.05;50.04;99844.97;8350281;28;20446;-62
2022/05/11 17:07:29;;;;;;;9.52;1.40;;;;;;;26.91;51.03;99838.16;8349429;28;20034;-62
2022/05/11 17:11:29;;;;;;;8.60;1.75;;;;;;;26.80;49.98;99838.06;8327302;28;20069;-62
2022/05/11 17:15:31;;;;;;;9.83;1.50;;;;;;;26.59;50.03;99847.25;8329323;28;20420;-62
2022/05/11 17:19:32;;;;;;;3.78;1.58;;;;;;;26.36;50.28;99839.22;8319132;28;20324;-62
2022/05/11 17:23:33;;;;;;;8.43;1.35;;;;;;;26.14;51.41;99840.34;8323394;28;20044;-61
2022/05/11 17:27:33;;;;;;;8.60;1.20;;;;;;;25.96;51.38;99847.00;8341800;28;20026;-61
2022/05/11 17:31:36;;;;;;;6.80;2.23;;;;;;;25.94;53.54;99846.41;8339825;28;20041;-60
2022/05/11 17:35:36;;;;;;;7.47;2.15;;;;;;;26.44;53.65;99855.38;8296211;28;20308;-61
2022/05/11 17:39:36;;;;;;;7.50;1.87;;;;;;;26.56;53.72;99847.75;8305915;28;20502;-61
2022/05/11 17:43:37;;;;;;;10.45;1.70;;;;;;;26.31;51.54;99844.69;8310847;28;20276;-62
2022/05/11 17:47:38;;;;;;;5.72;1.40;;;;;;;26.11;51.57;99847.25;8325744;28;20156;-61
2022/05/11 17:51:41;;;;;;;3.53;1.38;;;;;;;26.04;51.95;99846.56;8331393;28;20051;-61
2022/05/11 17:55:45;;;;;;;4.93;1.53;;;;;;;25.81;52.27;99849.56;8311923;28;20095;-62
2022/05/11 17:59:48;;;;;;;4.93;1.48;;;;;;;25.80;52.84;99861.72;8325353;28;20029;-62
2022/05/11 18:03:49;;;;;;;9.37;1.40;;;;;;;25.63;53.97;99860.91;8323521;28;20033;-62
2022/05/11 18:07:49;;;;;;;5.80;1.50;;;;;;;25.60;54.04;99864.19;8321521;28;20060;-62
2022/05/11 18:11:49;;;;;;;5.38;1.58;;;;;;;25.61;53.49;99862.28;8329644;28;20042;-62
2022/05/11 18:15:50;;;;;;;8.17;1.60;;;;;;;25.59;54.11;99868.06;8330905;28;20068;-62
2022/05/11 18:19:51;;;;;;;4.10;1.30;;;;;;;25.42;54.25;99872.75;8331652;28;20299;-62
2022/05/11 18:23:51;;;;;;;9.80;1.48;;;;;;;25.35;54.67;99872.09;8343764;28;20030;-62
2022/05/11 18:27:53;;;;;;;4.63;1.30;;;;;;;25.38;52.08;99870.75;8326424;28;20460;-62
2022/05/11 18:31:54;;;;;;;8.40;1.40;;;;;;;25.42;50.28;99864.47;8321477;28;20110;-62
2022/05/11 18:35:55;;;;;;;4.72;1.30;;;;;;;25.27;50.09;99875.25;8330190;28;20041;-62
2022/05/11 18:39:55;;;;;;;3.88;1.10;;;;;;;25.16;48.67;99851.28;8334030;28;20048;-62
2022/05/11 18:43:56;;;;;;;2.42;1.13;;;;;;;25.13;49.14;99873.91;8317497;28;20078;-62
2022/05/11 18:47:56;;;;;;;3.20;1.50;;;;;;;24.96;49.74;99878.56;8326387;28;20037;-62
2022/05/11 18:51:57;;;;;;;7.85;1.48;;;;;;;24.73;50.49;99882.31;8327163;28;20077;-62
2022/05/11 18:55:57;;;;;;;5.53;1.20;;;;;;;24.61;50.83;99888.94;8337296;28;20049;-62
2022/05/11 18:59:58;;;;;;;7.40;1.20;;;;;;;24.46;51.06;99886.69;8325146;28;20038;-62
2022/05/11 19:03:58;;;;;;;3.85;1.00;;;;;;;24.45;50.53;99892.47;8326834;28;20330;-62
2022/05/11 19:07:59;;;;;;;3.20;1.10;;;;;;;24.32;50.81;99898.28;8326918;28;20416;-62
2022/05/11 19:11:59;;;;;;;9.43;1.17;;;;;;;24.22;50.90;99903.59;8333482;28;20042;-62
2022/05/11 19:16:00;;;;;;;3.65;1.10;;;;;;;24.13;51.28;99903.16;8329920;28;20041;-62
2022/05/11 19:20:03;;;;;;;7.80;1.75;;;;;;;23.98;51.77;99913.88;8324274;28;20049;-62
2022/05/11 19:24:03;;;;;;;2.72;1.25;;;;;;;23.95;52.25;99930.06;8331974;28;20057;-62
2022/05/11 19:28:04;;;;;;;4.97;1.40;;;;;;;23.90;53.22;99932.66;8342153;28;20043;-62
2022/05/11 19:32:05;;;;;;;2.40;1.15;;;;;;;23.87;54.53;99933.16;8329586;28;20037;-63
2022/05/11 19:36:07;;;;;;;4.05;1.08;;;;;;;23.77;55.96;99932.91;8337262;28;20061;-62
2022/05/11 19:40:11;;;;;;;5.63;1.40;;;;;;;23.66;57.43;99947.56;8340029;28;20042;-62
2022/05/11 19:44:11;;;;;;;6.17;1.20;;;;;;;23.68;57.26;99939.88;8335803;28;20607;-62
2022/05/11 19:48:12;;;;;;;3.53;1.33;;;;;;;23.66;57.61;99936.53;8327800;28;20399;-62
2022/05/11 19:52:13;;;;;;;4.93;1.27;;;;;;;23.72;57.13;99952.97;8336668;28;20490;-62
2022/05/11 19:56:14;;;;;;;4.78;1.42;;;;;;;23.70;57.11;99954.28;8325789;28;20470;-62